createdAt,value
2023-03-28T00:01:33.941Z,46.8
2023-03-28T00:06:51.853Z,46.2
2023-03-28T00:12:10.223Z,46.2
2023-03-28T00:17:28.581Z,46.6
2023-03-28T00:22:46.855Z,46.4
2023-03-28T00:28:05.382Z,46.6
2023-03-28T00:33:23.475Z,46.9
2023-03-28T00:38:41.749Z,46
2023-03-28T00:44:02.363Z,46.3
2023-03-28T00:49:20.847Z,46.4
2023-03-28T00:54:39.143Z,45.8
2023-03-28T00:59:57.495Z,45.5
2023-03-28T01:05:15.745Z,46.4
2023-03-28T01:10:33.684Z,46.6
2023-03-28T01:15:52.136Z,46.6
2023-03-28T01:21:10.220Z,46.3
2023-03-28T01:26:28.506Z,46.4
2023-03-28T01:31:47.013Z,46.5
2023-03-28T01:37:05.352Z,46.5
2023-03-28T01:42:23.815Z,45.7
2023-03-28T01:47:42.228Z,46.1
2023-03-28T01:53:00.522Z,45.7
2023-03-28T01:58:19.019Z,46.4
2023-03-28T02:03:37.249Z,45.5
2023-03-28T02:08:55.785Z,46.2
2023-03-28T02:14:13.661Z,46.3
2023-03-28T02:19:31.671Z,46.3
2023-03-28T02:24:49.922Z,45.9
2023-03-28T02:30:08.227Z,46.4
2023-03-28T02:35:26.872Z,45.9
2023-03-28T02:40:45.169Z,46.6
2023-03-28T02:46:04.380Z,45.6
2023-03-28T02:51:22.719Z,46.3
2023-03-28T02:56:41.032Z,46.1
2023-03-28T03:01:59.149Z,45.8
2023-03-28T03:07:17.957Z,45.2
2023-03-28T03:12:36.228Z,45.8
2023-03-28T03:17:54.413Z,45.1
2023-03-28T03:23:12.739Z,45.7
2023-03-28T03:28:31.006Z,45.9
2023-03-28T03:33:49.477Z,45.4
2023-03-28T03:39:07.792Z,45.5
2023-03-28T03:44:25.861Z,45.6
2023-03-28T03:49:43.964Z,45.5
2023-03-28T03:55:02.445Z,44.6
2023-03-28T04:00:20.714Z,44.2
2023-03-28T04:05:38.844Z,44.8
2023-03-28T04:10:57.199Z,44.7
2023-03-28T04:16:15.575Z,44.1
2023-03-28T04:21:33.692Z,44.5
2023-03-28T04:26:51.823Z,44.7
2023-03-28T04:32:10.098Z,44.4
2023-03-28T04:37:28.186Z,44
2023-03-28T04:42:46.581Z,42.7
2023-03-28T04:48:04.995Z,42.4
2023-03-28T04:53:23.111Z,43.4
2023-03-28T04:58:41.260Z,43.6
2023-03-28T05:03:59.357Z,42.6
2023-03-28T05:09:17.427Z,43
2023-03-28T05:14:36.395Z,43.6
2023-03-28T05:19:54.910Z,43.4
2023-03-28T05:25:13.199Z,43.1
2023-03-28T05:30:31.515Z,43.7
2023-03-28T05:35:49.856Z,43.6
2023-03-28T05:41:08.136Z,42.8
2023-03-28T05:46:26.732Z,42.8
2023-03-28T05:51:44.796Z,43.6
2023-03-28T05:57:02.914Z,42.8
2023-03-28T06:02:21.552Z,42.5
2023-03-28T06:07:43.741Z,42.8
2023-03-28T06:13:01.863Z,42.9
2023-03-28T06:18:19.838Z,42.6
2023-03-28T06:23:38.098Z,42.4
2023-03-28T06:28:56.223Z,42.3
2023-03-28T06:34:14.552Z,42.8
2023-03-28T06:39:33.072Z,42.1
2023-03-28T06:44:51.386Z,41.9
2023-03-28T06:50:09.632Z,42.2
2023-03-28T06:55:27.924Z,42.7
2023-03-28T07:00:46.010Z,42.8
2023-03-28T07:06:04.369Z,42.5
2023-03-28T07:11:22.457Z,42.7
2023-03-28T07:16:40.464Z,42.7
2023-03-28T07:21:58.910Z,41.8
2023-03-28T07:27:17.791Z,42.7
2023-03-28T07:33:07.913Z,42.8
2023-03-28T07:38:30.929Z,42.4
2023-03-28T07:43:49.008Z,42.2
2023-03-28T07:49:06.904Z,42.9
2023-03-28T07:54:25.063Z,43
2023-03-28T07:59:43.706Z,42.3
2023-03-28T08:05:02.339Z,43
2023-03-28T08:10:20.274Z,42.3
2023-03-28T08:15:38.771Z,42.8
2023-03-28T08:20:57.085Z,41.9
2023-03-28T08:26:15.548Z,42.5
2023-03-28T08:31:36.654Z,42
2023-03-28T08:36:55.205Z,42.7
2023-03-28T08:42:13.956Z,42.2
2023-03-28T08:47:31.943Z,41.6
2023-03-28T08:52:50.412Z,42.4
2023-03-28T08:58:08.941Z,42.6
2023-03-28T09:03:27.418Z,42.2
2023-03-28T09:08:45.732Z,41.5
2023-03-28T09:14:03.905Z,41.8
2023-03-28T09:19:23.320Z,41.8
2023-03-28T09:24:43.176Z,41.1
2023-03-28T09:30:01.527Z,41.8
2023-03-28T09:35:19.997Z,41.2
2023-03-28T09:40:38.099Z,40.8
2023-03-28T09:45:56.071Z,41.8
2023-03-28T09:51:14.196Z,40.8
2023-03-28T09:56:32.462Z,41
2023-03-28T10:01:50.804Z,40.9
2023-03-28T10:07:08.895Z,40.4
2023-03-28T10:12:27.186Z,41.3
2023-03-28T10:17:45.277Z,40.5
2023-03-28T10:23:05.293Z,40.6
2023-03-28T10:28:23.387Z,40.2
2023-03-28T10:33:41.636Z,39.8
2023-03-28T10:38:59.699Z,39.9
2023-03-28T10:44:18.010Z,40.4
2023-03-28T10:49:36.314Z,40.9
2023-03-28T10:54:54.696Z,41.1
2023-03-28T11:00:13.240Z,40.6
2023-03-28T11:05:31.236Z,40.4
2023-03-28T11:10:49.515Z,40.3
2023-03-28T11:16:08.025Z,40
2023-03-28T11:21:26.458Z,40.3
2023-03-28T11:26:44.862Z,40.4
2023-03-28T11:32:02.996Z,40
2023-03-28T11:37:21.197Z,40.3
2023-03-28T11:42:39.252Z,40.2
2023-03-28T11:47:57.438Z,40.5
2023-03-28T11:53:15.920Z,40.1
2023-03-28T11:58:34.194Z,39.9
2023-03-28T12:03:52.873Z,40.5
2023-03-28T12:09:11.444Z,40.1
2023-03-28T12:14:29.682Z,39.7
2023-03-28T12:19:47.981Z,39.7
2023-03-28T12:25:06.537Z,39.1
2023-03-28T12:30:24.863Z,38.5
2023-03-28T12:35:43.306Z,39.5
2023-03-28T12:41:02.597Z,39.5
2023-03-28T12:46:21.328Z,39.1
2023-03-28T12:51:39.542Z,39.1
2023-03-28T12:56:57.963Z,39.3
2023-03-28T13:02:16.043Z,39.8
2023-03-28T13:07:34.323Z,39.9
2023-03-28T13:12:52.513Z,39.3
2023-03-28T13:18:10.897Z,40
2023-03-28T13:23:29.173Z,39.4
2023-03-28T13:28:47.516Z,40.1
2023-03-28T13:34:05.853Z,40.2
2023-03-28T13:39:24.145Z,40.1
2023-03-28T13:44:42.652Z,42.3
2023-03-28T13:50:01.051Z,41.8
2023-03-28T13:55:19.314Z,41.3
2023-03-28T14:00:37.667Z,40.9
2023-03-28T14:05:55.956Z,41.3
2023-03-28T14:11:17.235Z,40.7
2023-03-28T14:16:35.555Z,40.6
2023-03-28T14:21:53.821Z,41.1
2023-03-28T14:27:14.289Z,40.7
2023-03-28T14:32:32.667Z,40
2023-03-28T14:37:51.150Z,40
2023-03-28T14:43:09.276Z,39.9
2023-03-28T14:48:27.192Z,39.9
2023-03-28T14:53:45.674Z,39.9
2023-03-28T14:59:04.112Z,39.8
2023-03-28T15:04:22.789Z,39.8
2023-03-28T15:09:41.266Z,39.6
2023-03-28T15:14:59.762Z,39.6
2023-03-28T15:20:17.933Z,40.2
2023-03-28T15:25:36.315Z,39.8
2023-03-28T15:30:54.502Z,40
2023-03-28T15:36:13.066Z,39.3
2023-03-28T15:41:31.205Z,39.4
2023-03-28T15:46:49.432Z,39.8
2023-03-28T15:52:07.610Z,40.4
2023-03-28T15:57:26.055Z,39.7
2023-03-28T16:02:45.610Z,40.5
2023-03-28T16:08:05.869Z,39.4
2023-03-28T16:13:24.227Z,39.7
2023-03-28T16:18:51.491Z,39.4
2023-03-28T16:24:09.408Z,40.3
2023-03-28T16:29:28.193Z,40.3
2023-03-28T16:34:46.462Z,39.3
2023-03-28T16:40:04.817Z,39.7
2023-03-28T16:45:23.198Z,40.1
2023-03-28T16:50:41.658Z,40
2023-03-28T16:56:00.559Z,39.4
2023-03-28T17:01:19.270Z,39.7
2023-03-28T17:06:37.432Z,39.8
2023-03-28T17:11:55.594Z,40
2023-03-28T17:17:13.934Z,40.8
2023-03-28T17:22:34.925Z,40.8
2023-03-28T17:27:53.252Z,40
2023-03-28T17:33:11.845Z,39.9
2023-03-28T17:38:30.378Z,39.2
2023-03-28T17:43:48.865Z,39.7
2023-03-28T17:49:07.011Z,40
2023-03-28T17:54:25.568Z,40.6
2023-03-28T17:59:43.880Z,37
2023-03-28T18:05:02.218Z,40.2
2023-03-28T18:10:20.339Z,40.1
2023-03-28T18:15:38.682Z,40.1
2023-03-28T18:20:56.996Z,39.5
2023-03-28T18:26:18.655Z,39.9
2023-03-28T18:31:37.011Z,40
2023-03-28T18:36:55.112Z,40.1
2023-03-28T18:42:16.547Z,40.6
2023-03-28T18:47:37.989Z,40.1
2023-03-28T18:52:56.908Z,41
2023-03-28T18:58:16.237Z,40.4
2023-03-28T19:03:35.192Z,41.1
2023-03-28T19:08:53.853Z,41
2023-03-28T19:14:12.320Z,40.3
2023-03-28T19:19:30.833Z,40.6
2023-03-28T19:24:48.912Z,40.6
2023-03-28T19:30:07.279Z,41.1
2023-03-28T19:35:25.543Z,41
2023-03-28T19:40:43.840Z,40.8
2023-03-28T19:46:03.032Z,41.1
2023-03-28T19:51:21.312Z,40.3
2023-03-28T19:56:39.621Z,40.8
2023-03-28T20:01:57.991Z,41.3
2023-03-28T20:07:16.102Z,40.3
2023-03-28T20:12:34.151Z,40.5
2023-03-28T20:17:52.401Z,41
2023-03-28T20:23:10.537Z,40.7
2023-03-28T20:28:28.809Z,41.1
2023-03-28T20:33:47.077Z,40.6
2023-03-28T20:39:05.458Z,41.4
2023-03-28T20:44:23.725Z,40.7
2023-03-28T20:49:41.807Z,40.8
2023-03-28T20:55:00.322Z,41
2023-03-28T21:00:18.566Z,40.8
2023-03-28T21:05:37.079Z,41.3
2023-03-28T21:10:55.434Z,41
2023-03-28T21:16:13.371Z,40.9
2023-03-28T21:21:31.657Z,40.9
2023-03-28T21:26:49.786Z,41.3
2023-03-28T21:32:08.004Z,40.5
2023-03-28T21:37:26.147Z,41.5
2023-03-28T21:42:44.492Z,40.8
2023-03-28T21:48:03.085Z,40.5
2023-03-28T21:53:21.742Z,41.2
2023-03-28T21:58:40.386Z,40.9
2023-03-28T22:03:58.860Z,40.9
2023-03-28T22:09:16.770Z,40.8
2023-03-28T22:14:35.096Z,41.4
2023-03-28T22:19:53.357Z,41.6
2023-03-28T22:25:11.642Z,41.4
2023-03-28T22:30:29.568Z,41.5
2023-03-28T22:35:47.690Z,41.9
2023-03-28T22:41:06.009Z,41.6
2023-03-28T22:46:24.352Z,41.7
2023-03-28T22:51:42.629Z,41.2
2023-03-28T22:57:01.064Z,40.9
2023-03-28T23:02:19.588Z,41.8
2023-03-28T23:07:37.860Z,41.7
2023-03-28T23:12:56.328Z,41.8
2023-03-28T23:18:14.456Z,41.9
2023-03-28T23:23:32.608Z,41.6
2023-03-28T23:28:50.880Z,41.6
2023-03-28T23:34:09.006Z,41.8
2023-03-28T23:39:27.265Z,40.9
2023-03-28T23:44:45.537Z,40.9
2023-03-28T23:50:03.904Z,41.3
2023-03-28T23:55:22.199Z,40.8
